sensor_id;sensor_type;location;lat;lon;timestamp;P1;durP1;ratioP1;P2;durP2;ratioP2
44110;SDS011;29774;52.664;5.074;2022-09-21T00:00:37;4.15;;;3.33;;
44110;SDS011;29774;52.664;5.074;2022-09-21T00:03:03;4.30;;;2.88;;
44110;SDS011;29774;52.664;5.074;2022-09-21T00:05:29;3.90;;;2.90;;
44110;SDS011;29774;52.664;5.074;2022-09-21T00:07:58;3.65;;;3.10;;
44110;SDS011;29774;52.664;5.074;2022-09-21T00:10:25;4.18;;;2.75;;
44110;SDS011;29774;52.664;5.074;2022-09-21T00:12:51;20.77;;;13.98;;
44110;SDS011;29774;52.664;5.074;2022-09-21T00:15:17;5.35;;;4.35;;
44110;SDS011;29774;52.664;5.074;2022-09-21T00:17:43;4.10;;;3.15;;
44110;SDS011;29774;52.664;5.074;2022-09-21T00:20:10;6.78;;;3.83;;
44110;SDS011;29774;52.664;5.074;2022-09-21T00:22:36;4.35;;;2.90;;
44110;SDS011;29774;52.664;5.074;2022-09-21T00:25:02;5.85;;;2.70;;
44110;SDS011;29774;52.664;5.074;2022-09-21T00:27:29;4.32;;;2.95;;
44110;SDS011;29774;52.664;5.074;2022-09-21T00:29:55;4.68;;;3.38;;
44110;SDS011;29774;52.664;5.074;2022-09-21T00:32:22;3.58;;;3.17;;
44110;SDS011;29774;52.664;5.074;2022-09-21T00:34:51;3.72;;;2.50;;
44110;SDS011;29774;52.664;5.074;2022-09-21T00:37:17;4.05;;;3.08;;
44110;SDS011;29774;52.664;5.074;2022-09-21T00:39:44;3.95;;;2.97;;
44110;SDS011;29774;52.664;5.074;2022-09-21T00:42:20;5.47;;;3.17;;
44110;SDS011;29774;52.664;5.074;2022-09-21T00:44:48;4.55;;;3.05;;
44110;SDS011;29774;52.664;5.074;2022-09-21T00:47:15;4.03;;;3.00;;
44110;SDS011;29774;52.664;5.074;2022-09-21T00:49:46;3.83;;;3.00;;
44110;SDS011;29774;52.664;5.074;2022-09-21T00:52:15;3.88;;;2.83;;
44110;SDS011;29774;52.664;5.074;2022-09-21T00:54:50;3.72;;;3.25;;
44110;SDS011;29774;52.664;5.074;2022-09-21T00:57:19;3.80;;;2.88;;
44110;SDS011;29774;52.664;5.074;2022-09-21T00:59:47;4.88;;;2.25;;
44110;SDS011;29774;52.664;5.074;2022-09-21T01:02:15;4.13;;;2.60;;
44110;SDS011;29774;52.664;5.074;2022-09-21T01:04:42;3.05;;;2.55;;
44110;SDS011;29774;52.664;5.074;2022-09-21T01:07:10;3.00;;;2.03;;
44110;SDS011;29774;52.664;5.074;2022-09-21T01:09:46;4.55;;;2.33;;
44110;SDS011;29774;52.664;5.074;2022-09-21T01:17:59;4.03;;;2.83;;
44110;SDS011;29774;52.664;5.074;2022-09-21T01:40:27;4.45;;;2.90;;
44110;SDS011;29774;52.664;5.074;2022-09-21T01:42:57;4.30;;;2.47;;
44110;SDS011;29774;52.664;5.074;2022-09-21T01:45:29;4.63;;;2.30;;
44110;SDS011;29774;52.664;5.074;2022-09-21T01:47:59;3.58;;;1.92;;
44110;SDS011;29774;52.664;5.074;2022-09-21T01:50:26;3.42;;;2.22;;
44110;SDS011;29774;52.664;5.074;2022-09-21T01:52:58;3.40;;;2.40;;
44110;SDS011;29774;52.664;5.074;2022-09-21T01:55:47;2.47;;;2.15;;
44110;SDS011;29774;52.664;5.074;2022-09-21T02:01:01;3.00;;;2.30;;
44110;SDS011;29774;52.664;5.074;2022-09-21T02:03:38;2.78;;;1.80;;
44110;SDS011;29774;52.664;5.074;2022-09-21T02:06:08;4.50;;;2.50;;
44110;SDS011;29774;52.664;5.074;2022-09-21T02:08:35;2.85;;;2.10;;
44110;SDS011;29774;52.664;5.074;2022-09-21T02:11:02;4.45;;;2.20;;
44110;SDS011;29774;52.664;5.074;2022-09-21T02:13:30;4.82;;;2.40;;
44110;SDS011;29774;52.664;5.074;2022-09-21T02:21:32;2.67;;;1.95;;
44110;SDS011;29774;52.664;5.074;2022-09-21T02:30:08;2.80;;;2.40;;
44110;SDS011;29774;52.664;5.074;2022-09-21T02:33:01;5.03;;;2.40;;
44110;SDS011;29774;52.664;5.074;2022-09-21T02:43:17;3.42;;;2.20;;
44110;SDS011;29774;52.664;5.074;2022-09-21T02:45:49;2.80;;;1.80;;
44110;SDS011;29774;52.664;5.074;2022-09-21T02:48:24;2.95;;;2.10;;
44110;SDS011;29774;52.664;5.074;2022-09-21T02:50:55;9.70;;;7.57;;
44110;SDS011;29774;52.664;5.074;2022-09-21T02:53:28;9.13;;;2.63;;
44110;SDS011;29774;52.664;5.074;2022-09-21T02:55:57;5.18;;;2.50;;
44110;SDS011;29774;52.664;5.074;2022-09-21T02:58:27;5.15;;;2.60;;
44110;SDS011;29774;52.664;5.074;2022-09-21T03:00:55;2.53;;;2.03;;
44110;SDS011;29774;52.664;5.074;2022-09-21T03:03:22;5.30;;;2.25;;
44110;SDS011;29774;52.664;5.074;2022-09-21T03:05:49;2.78;;;2.05;;
44110;SDS011;29774;52.664;5.074;2022-09-21T03:08:16;3.83;;;2.42;;
44110;SDS011;29774;52.664;5.074;2022-09-21T03:10:42;5.10;;;2.50;;
44110;SDS011;29774;52.664;5.074;2022-09-21T03:13:09;3.78;;;2.17;;
44110;SDS011;29774;52.664;5.074;2022-09-21T03:15:35;2.47;;;2.05;;
44110;SDS011;29774;52.664;5.074;2022-09-21T03:18:03;2.03;;;1.77;;
44110;SDS011;29774;52.664;5.074;2022-09-21T03:20:30;3.28;;;2.33;;
44110;SDS011;29774;52.664;5.074;2022-09-21T03:22:57;3.05;;;2.00;;
44110;SDS011;29774;52.664;5.074;2022-09-21T03:25:22;2.15;;;1.92;;
44110;SDS011;29774;52.664;5.074;2022-09-21T03:27:48;5.90;;;1.92;;
44110;SDS011;29774;52.664;5.074;2022-09-21T03:30:16;4.13;;;3.13;;
44110;SDS011;29774;52.664;5.074;2022-09-21T03:32:42;3.55;;;2.17;;
44110;SDS011;29774;52.664;5.074;2022-09-21T03:35:07;2.35;;;2.10;;
44110;SDS011;29774;52.664;5.074;2022-09-21T03:37:33;3.97;;;1.88;;
44110;SDS011;29774;52.664;5.074;2022-09-21T03:39:58;5.28;;;3.30;;
44110;SDS011;29774;52.664;5.074;2022-09-21T03:42:24;2.55;;;2.03;;
44110;SDS011;29774;52.664;5.074;2022-09-21T03:44:50;3.05;;;1.88;;
44110;SDS011;29774;52.664;5.074;2022-09-21T03:47:15;2.83;;;2.10;;
44110;SDS011;29774;52.664;5.074;2022-09-21T03:49:41;3.17;;;2.17;;
44110;SDS011;29774;52.664;5.074;2022-09-21T03:52:06;3.53;;;2.20;;
44110;SDS011;29774;52.664;5.074;2022-09-21T03:54:32;4.78;;;2.70;;
44110;SDS011;29774;52.664;5.074;2022-09-21T03:56:57;4.00;;;2.25;;
44110;SDS011;29774;52.664;5.074;2022-09-21T03:59:23;3.13;;;2.17;;
44110;SDS011;29774;52.664;5.074;2022-09-21T04:01:49;4.57;;;2.10;;
44110;SDS011;29774;52.664;5.074;2022-09-21T04:04:14;4.05;;;2.15;;
44110;SDS011;29774;52.664;5.074;2022-09-21T04:06:40;4.22;;;2.30;;
44110;SDS011;29774;52.664;5.074;2022-09-21T04:09:07;2.47;;;2.22;;
44110;SDS011;29774;52.664;5.074;2022-09-21T04:11:33;2.55;;;2.30;;
44110;SDS011;29774;52.664;5.074;2022-09-21T04:13:59;2.03;;;1.73;;
44110;SDS011;29774;52.664;5.074;2022-09-21T04:16:25;3.00;;;2.10;;
44110;SDS011;29774;52.664;5.074;2022-09-21T04:18:51;2.33;;;1.98;;
44110;SDS011;29774;52.664;5.074;2022-09-21T04:21:17;3.25;;;2.15;;
44110;SDS011;29774;52.664;5.074;2022-09-21T04:23:43;2.60;;;1.73;;
44110;SDS011;29774;52.664;5.074;2022-09-21T04:26:28;2.22;;;1.80;;
44110;SDS011;29774;52.664;5.074;2022-09-21T04:28:58;4.70;;;2.15;;
44110;SDS011;29774;52.664;5.074;2022-09-21T04:31:25;2.70;;;2.05;;
44110;SDS011;29774;52.664;5.074;2022-09-21T04:33:52;2.78;;;2.30;;
44110;SDS011;29774;52.664;5.074;2022-09-21T04:36:19;3.50;;;2.45;;
44110;SDS011;29774;52.664;5.074;2022-09-21T04:38:46;3.70;;;2.53;;
44110;SDS011;29774;52.664;5.074;2022-09-21T04:41:12;4.70;;;2.22;;
44110;SDS011;29774;52.664;5.074;2022-09-21T04:43:41;2.75;;;2.00;;
44110;SDS011;29774;52.664;5.074;2022-09-21T04:46:10;3.60;;;2.40;;
44110;SDS011;29774;52.664;5.074;2022-09-21T04:48:37;3.10;;;2.28;;
44110;SDS011;29774;52.664;5.074;2022-09-21T04:51:04;2.63;;;2.22;;
44110;SDS011;29774;52.664;5.074;2022-09-21T04:53:33;3.67;;;2.10;;
44110;SDS011;29774;52.664;5.074;2022-09-21T04:56:01;3.25;;;2.00;;
44110;SDS011;29774;52.664;5.074;2022-09-21T04:58:27;2.42;;;2.22;;
44110;SDS011;29774;52.664;5.074;2022-09-21T05:00:53;2.15;;;1.95;;
44110;SDS011;29774;52.664;5.074;2022-09-21T05:03:20;3.78;;;2.20;;
44110;SDS011;29774;52.664;5.074;2022-09-21T05:05:47;2.97;;;2.33;;
44110;SDS011;29774;52.664;5.074;2022-09-21T05:08:23;3.33;;;2.00;;
44110;SDS011;29774;52.664;5.074;2022-09-21T05:11:11;3.97;;;2.70;;
44110;SDS011;29774;52.664;5.074;2022-09-21T05:13:39;3.75;;;2.30;;
44110;SDS011;29774;52.664;5.074;2022-09-21T05:16:06;4.05;;;2.70;;
44110;SDS011;29774;52.664;5.074;2022-09-21T05:18:32;2.95;;;2.33;;
44110;SDS011;29774;52.664;5.074;2022-09-21T05:20:58;3.35;;;2.47;;
44110;SDS011;29774;52.664;5.074;2022-09-21T05:23:25;2.88;;;2.38;;
44110;SDS011;29774;52.664;5.074;2022-09-21T05:25:53;2.63;;;2.30;;
44110;SDS011;29774;52.664;5.074;2022-09-21T05:28:19;2.90;;;2.20;;
44110;SDS011;29774;52.664;5.074;2022-09-21T05:30:45;3.38;;;2.20;;
44110;SDS011;29774;52.664;5.074;2022-09-21T05:33:18;4.25;;;2.70;;
44110;SDS011;29774;52.664;5.074;2022-09-21T05:36:06;5.80;;;4.07;;
44110;SDS011;29774;52.664;5.074;2022-09-21T05:38:36;5.57;;;3.20;;
44110;SDS011;29774;52.664;5.074;2022-09-21T05:41:01;4.32;;;3.13;;
44110;SDS011;29774;52.664;5.074;2022-09-21T05:43:28;5.63;;;3.40;;
44110;SDS011;29774;52.664;5.074;2022-09-21T05:45:59;3.30;;;2.70;;
44110;SDS011;29774;52.664;5.074;2022-09-21T05:48:34;4.50;;;2.95;;
44110;SDS011;29774;52.664;5.074;2022-09-21T05:51:09;2.95;;;2.40;;
44110;SDS011;29774;52.664;5.074;2022-09-21T05:53:43;5.63;;;2.67;;
44110;SDS011;29774;52.664;5.074;2022-09-21T06:04:20;3.88;;;2.45;;
44110;SDS011;29774;52.664;5.074;2022-09-21T06:06:45;4.75;;;2.50;;
44110;SDS011;29774;52.664;5.074;2022-09-21T06:09:11;8.77;;;2.58;;
44110;SDS011;29774;52.664;5.074;2022-09-21T06:11:37;7.82;;;2.30;;
44110;SDS011;29774;52.664;5.074;2022-09-21T06:14:02;4.30;;;2.60;;
44110;SDS011;29774;52.664;5.074;2022-09-21T06:16:46;2.65;;;2.08;;
44110;SDS011;29774;52.664;5.074;2022-09-21T06:19:12;3.85;;;2.40;;
44110;SDS011;29774;52.664;5.074;2022-09-21T06:21:37;2.50;;;2.00;;
44110;SDS011;29774;52.664;5.074;2022-09-21T06:24:03;3.45;;;2.10;;
44110;SDS011;29774;52.664;5.074;2022-09-21T06:26:29;3.97;;;2.03;;
44110;SDS011;29774;52.664;5.074;2022-09-21T06:28:54;2.58;;;1.90;;
44110;SDS011;29774;52.664;5.074;2022-09-21T06:31:20;3.30;;;2.10;;
44110;SDS011;29774;52.664;5.074;2022-09-21T06:33:45;2.85;;;2.10;;
44110;SDS011;29774;52.664;5.074;2022-09-21T06:36:11;3.75;;;2.30;;
44110;SDS011;29774;52.664;5.074;2022-09-21T06:38:38;4.18;;;2.30;;
44110;SDS011;29774;52.664;5.074;2022-09-21T06:41:04;3.67;;;2.63;;
44110;SDS011;29774;52.664;5.074;2022-09-21T06:43:30;3.50;;;2.75;;
44110;SDS011;29774;52.664;5.074;2022-09-21T06:45:57;6.80;;;2.85;;
44110;SDS011;29774;52.664;5.074;2022-09-21T06:48:24;5.00;;;2.58;;
44110;SDS011;29774;52.664;5.074;2022-09-21T06:50:55;4.22;;;2.42;;
44110;SDS011;29774;52.664;5.074;2022-09-21T06:53:24;5.80;;;2.63;;
44110;SDS011;29774;52.664;5.074;2022-09-21T06:55:51;3.92;;;2.80;;
44110;SDS011;29774;52.664;5.074;2022-09-21T06:58:16;4.22;;;2.45;;
44110;SDS011;29774;52.664;5.074;2022-09-21T07:00:43;5.00;;;2.58;;
44110;SDS011;29774;52.664;5.074;2022-09-21T07:03:10;4.75;;;2.60;;
44110;SDS011;29774;52.664;5.074;2022-09-21T07:05:37;5.38;;;2.92;;
44110;SDS011;29774;52.664;5.074;2022-09-21T07:08:03;6.97;;;2.38;;
44110;SDS011;29774;52.664;5.074;2022-09-21T07:10:29;8.45;;;2.97;;
44110;SDS011;29774;52.664;5.074;2022-09-21T07:12:59;3.08;;;2.63;;
44110;SDS011;29774;52.664;5.074;2022-09-21T07:15:27;6.07;;;3.13;;
44110;SDS011;29774;52.664;5.074;2022-09-21T07:17:54;6.97;;;2.50;;
44110;SDS011;29774;52.664;5.074;2022-09-21T07:20:19;3.28;;;2.55;;
44110;SDS011;29774;52.664;5.074;2022-09-21T07:22:45;4.85;;;2.88;;
44110;SDS011;29774;52.664;5.074;2022-09-21T07:25:11;3.42;;;2.60;;
44110;SDS011;29774;52.664;5.074;2022-09-21T07:27:37;4.82;;;2.83;;
44110;SDS011;29774;52.664;5.074;2022-09-21T07:30:03;3.88;;;2.47;;
44110;SDS011;29774;52.664;5.074;2022-09-21T07:32:29;4.10;;;2.60;;
44110;SDS011;29774;52.664;5.074;2022-09-21T07:34:55;4.38;;;2.83;;
44110;SDS011;29774;52.664;5.074;2022-09-21T07:37:25;6.72;;;2.38;;
44110;SDS011;29774;52.664;5.074;2022-09-21T07:39:51;4.13;;;3.20;;
44110;SDS011;29774;52.664;5.074;2022-09-21T07:42:17;6.43;;;2.90;;
44110;SDS011;29774;52.664;5.074;2022-09-21T07:44:47;4.95;;;2.50;;
44110;SDS011;29774;52.664;5.074;2022-09-21T07:47:14;9.02;;;3.00;;
44110;SDS011;29774;52.664;5.074;2022-09-21T07:49:40;5.05;;;3.75;;
44110;SDS011;29774;52.664;5.074;2022-09-21T07:52:06;5.82;;;2.40;;
44110;SDS011;29774;52.664;5.074;2022-09-21T07:54:33;7.97;;;3.15;;
44110;SDS011;29774;52.664;5.074;2022-09-21T07:56:59;3.70;;;3.03;;
44110;SDS011;29774;52.664;5.074;2022-09-21T07:59:44;17.02;;;3.63;;
44110;SDS011;29774;52.664;5.074;2022-09-21T08:02:09;5.13;;;2.47;;
44110;SDS011;29774;52.664;5.074;2022-09-21T08:04:35;4.22;;;2.10;;
44110;SDS011;29774;52.664;5.074;2022-09-21T08:07:01;5.70;;;1.80;;
44110;SDS011;29774;52.664;5.074;2022-09-21T08:09:26;6.07;;;1.83;;
44110;SDS011;29774;52.664;5.074;2022-09-21T08:11:52;5.57;;;1.70;;
44110;SDS011;29774;52.664;5.074;2022-09-21T08:14:18;6.47;;;2.22;;
44110;SDS011;29774;52.664;5.074;2022-09-21T08:16:45;6.63;;;2.42;;
44110;SDS011;29774;52.664;5.074;2022-09-21T08:19:12;5.85;;;2.28;;
44110;SDS011;29774;52.664;5.074;2022-09-21T08:21:38;5.43;;;1.63;;
44110;SDS011;29774;52.664;5.074;2022-09-21T08:24:04;4.07;;;1.30;;
44110;SDS011;29774;52.664;5.074;2022-09-21T08:26:29;3.08;;;1.95;;
44110;SDS011;29774;52.664;5.074;2022-09-21T08:28:55;2.63;;;1.20;;
44110;SDS011;29774;52.664;5.074;2022-09-21T08:31:22;5.63;;;1.95;;
44110;SDS011;29774;52.664;5.074;2022-09-21T08:33:49;3.70;;;1.50;;
44110;SDS011;29774;52.664;5.074;2022-09-21T08:36:15;2.78;;;1.20;;
44110;SDS011;29774;52.664;5.074;2022-09-21T08:38:41;2.40;;;1.08;;
44110;SDS011;29774;52.664;5.074;2022-09-21T08:41:14;4.28;;;1.27;;
44110;SDS011;29774;52.664;5.074;2022-09-21T08:43:42;1.38;;;1.05;;
44110;SDS011;29774;52.664;5.074;2022-09-21T08:46:12;3.67;;;1.20;;
44110;SDS011;29774;52.664;5.074;2022-09-21T08:48:43;2.38;;;0.88;;
44110;SDS011;29774;52.664;5.074;2022-09-21T08:51:14;3.60;;;1.67;;
44110;SDS011;29774;52.664;5.074;2022-09-21T08:53:47;3.28;;;0.90;;
44110;SDS011;29774;52.664;5.074;2022-09-21T08:56:15;1.48;;;1.00;;
44110;SDS011;29774;52.664;5.074;2022-09-21T08:58:41;2.88;;;1.08;;
44110;SDS011;29774;52.664;5.074;2022-09-21T09:06:23;7.30;;;1.05;;
44110;SDS011;29774;52.664;5.074;2022-09-21T09:12:16;2.42;;;0.90;;
44110;SDS011;29774;52.664;5.074;2022-09-21T09:17:24;3.22;;;0.80;;
44110;SDS011;29774;52.664;5.074;2022-09-21T09:20:09;2.15;;;0.98;;
44110;SDS011;29774;52.664;5.074;2022-09-21T09:22:41;1.92;;;0.68;;
44110;SDS011;29774;52.664;5.074;2022-09-21T09:25:15;3.15;;;0.70;;
44110;SDS011;29774;52.664;5.074;2022-09-21T09:27:44;3.45;;;1.02;;
44110;SDS011;29774;52.664;5.074;2022-09-21T09:32:57;2.15;;;0.50;;
44110;SDS011;29774;52.664;5.074;2022-09-21T09:35:36;1.27;;;0.95;;
44110;SDS011;29774;52.664;5.074;2022-09-21T09:38:16;1.73;;;0.60;;
44110;SDS011;29774;52.664;5.074;2022-09-21T09:51:20;2.30;;;0.80;;
44110;SDS011;29774;52.664;5.074;2022-09-21T09:53:46;2.35;;;0.95;;
44110;SDS011;29774;52.664;5.074;2022-09-21T09:56:11;2.60;;;0.70;;
44110;SDS011;29774;52.664;5.074;2022-09-21T10:04:13;1.58;;;0.50;;
44110;SDS011;29774;52.664;5.074;2022-09-21T10:06:41;2.17;;;0.75;;
44110;SDS011;29774;52.664;5.074;2022-09-21T10:12:01;0.80;;;0.40;;
44110;SDS011;29774;52.664;5.074;2022-09-21T10:14:40;3.67;;;0.63;;
44110;SDS011;29774;52.664;5.074;2022-09-21T10:17:13;1.83;;;0.88;;
44110;SDS011;29774;52.664;5.074;2022-09-21T10:19:42;0.80;;;0.57;;
44110;SDS011;29774;52.664;5.074;2022-09-21T10:22:13;1.15;;;0.50;;
44110;SDS011;29774;52.664;5.074;2022-09-21T10:24:40;1.65;;;0.50;;
44110;SDS011;29774;52.664;5.074;2022-09-21T10:27:13;1.30;;;0.40;;
44110;SDS011;29774;52.664;5.074;2022-09-21T10:29:44;1.27;;;0.50;;
44110;SDS011;29774;52.664;5.074;2022-09-21T10:34:37;1.45;;;0.52;;
44110;SDS011;29774;52.664;5.074;2022-09-21T10:40:25;1.63;;;0.93;;
44110;SDS011;29774;52.664;5.074;2022-09-21T10:42:55;1.10;;;0.45;;
44110;SDS011;29774;52.664;5.074;2022-09-21T10:45:24;0.88;;;0.50;;
44110;SDS011;29774;52.664;5.074;2022-09-21T10:47:53;0.93;;;0.40;;
44110;SDS011;29774;52.664;5.074;2022-09-21T10:50:37;1.23;;;0.63;;
44110;SDS011;29774;52.664;5.074;2022-09-21T10:59:09;0.68;;;0.40;;
44110;SDS011;29774;52.664;5.074;2022-09-21T11:01:52;5.40;;;0.65;;
44110;SDS011;29774;52.664;5.074;2022-09-21T11:07:03;1.05;;;0.50;;
44110;SDS011;29774;52.664;5.074;2022-09-21T11:12:48;0.52;;;0.40;;
44110;SDS011;29774;52.664;5.074;2022-09-21T11:20:46;1.75;;;0.40;;
44110;SDS011;29774;52.664;5.074;2022-09-21T11:29:17;1.52;;;0.50;;
44110;SDS011;29774;52.664;5.074;2022-09-21T11:37:44;1.17;;;0.30;;
44110;SDS011;29774;52.664;5.074;2022-09-21T11:43:49;0.22;;;0.20;;
44110;SDS011;29774;52.664;5.074;2022-09-21T11:46:16;3.88;;;0.85;;
44110;SDS011;29774;52.664;5.074;2022-09-21T12:08:22;1.08;;;0.40;;
44110;SDS011;29774;52.664;5.074;2022-09-21T12:14:08;1.85;;;0.55;;
44110;SDS011;29774;52.664;5.074;2022-09-21T12:17:10;2.72;;;0.50;;
44110;SDS011;29774;52.664;5.074;2022-09-21T12:19:42;1.23;;;0.40;;
44110;SDS011;29774;52.664;5.074;2022-09-21T12:22:17;0.60;;;0.40;;
44110;SDS011;29774;52.664;5.074;2022-09-21T12:24:51;1.83;;;0.63;;
44110;SDS011;29774;52.664;5.074;2022-09-21T12:27:23;2.25;;;0.77;;
44110;SDS011;29774;52.664;5.074;2022-09-21T12:35:14;2.72;;;0.68;;
44110;SDS011;29774;52.664;5.074;2022-09-21T12:43:10;1.55;;;0.38;;
44110;SDS011;29774;52.664;5.074;2022-09-21T12:46:02;1.58;;;0.63;;
44110;SDS011;29774;52.664;5.074;2022-09-21T12:48:34;0.98;;;0.38;;
44110;SDS011;29774;52.664;5.074;2022-09-21T12:53:45;3.38;;;0.60;;
44110;SDS011;29774;52.664;5.074;2022-09-21T12:56:18;2.33;;;0.57;;
44110;SDS011;29774;52.664;5.074;2022-09-21T13:02:09;4.20;;;0.68;;
44110;SDS011;29774;52.664;5.074;2022-09-21T13:04:47;3.90;;;0.60;;
44110;SDS011;29774;52.664;5.074;2022-09-21T13:10:21;4.97;;;0.85;;
44110;SDS011;29774;52.664;5.074;2022-09-21T13:16:20;6.72;;;0.80;;
44110;SDS011;29774;52.664;5.074;2022-09-21T13:18:59;2.00;;;0.60;;
44110;SDS011;29774;52.664;5.074;2022-09-21T13:21:37;2.58;;;0.63;;
44110;SDS011;29774;52.664;5.074;2022-09-21T13:24:04;1.70;;;0.60;;
44110;SDS011;29774;52.664;5.074;2022-09-21T13:26:40;1.88;;;0.50;;
44110;SDS011;29774;52.664;5.074;2022-09-21T13:31:53;1.65;;;0.50;;
44110;SDS011;29774;52.664;5.074;2022-09-21T13:34:23;2.67;;;0.50;;
44110;SDS011;29774;52.664;5.074;2022-09-21T13:47:38;2.78;;;0.65;;
44110;SDS011;29774;52.664;5.074;2022-09-21T13:50:19;2.45;;;0.60;;
44110;SDS011;29774;52.664;5.074;2022-09-21T13:55:27;1.65;;;0.40;;
44110;SDS011;29774;52.664;5.074;2022-09-21T13:57:55;1.08;;;0.50;;
44110;SDS011;29774;52.664;5.074;2022-09-21T14:03:05;1.90;;;0.52;;
44110;SDS011;29774;52.664;5.074;2022-09-21T14:05:50;2.30;;;0.40;;
44110;SDS011;29774;52.664;5.074;2022-09-21T14:08:19;2.08;;;0.60;;
44110;SDS011;29774;52.664;5.074;2022-09-21T14:10:51;2.20;;;0.40;;
44110;SDS011;29774;52.664;5.074;2022-09-21T14:18:51;3.03;;;0.80;;
44110;SDS011;29774;52.664;5.074;2022-09-21T14:21:18;2.35;;;0.50;;
44110;SDS011;29774;52.664;5.074;2022-09-21T14:26:34;2.88;;;0.80;;
44110;SDS011;29774;52.664;5.074;2022-09-21T14:29:15;4.43;;;0.70;;
44110;SDS011;29774;52.664;5.074;2022-09-21T14:31:41;3.53;;;1.00;;
44110;SDS011;29774;52.664;5.074;2022-09-21T14:34:18;1.92;;;0.50;;
44110;SDS011;29774;52.664;5.074;2022-09-21T14:36:48;2.85;;;0.47;;
44110;SDS011;29774;52.664;5.074;2022-09-21T14:39:18;2.05;;;0.43;;
44110;SDS011;29774;52.664;5.074;2022-09-21T14:41:48;2.10;;;0.57;;
44110;SDS011;29774;52.664;5.074;2022-09-21T14:44:18;3.03;;;1.08;;
44110;SDS011;29774;52.664;5.074;2022-09-21T14:49:33;3.30;;;0.60;;
44110;SDS011;29774;52.664;5.074;2022-09-21T14:55:24;3.38;;;0.70;;
44110;SDS011;29774;52.664;5.074;2022-09-21T15:00:44;1.60;;;0.40;;
44110;SDS011;29774;52.664;5.074;2022-09-21T15:03:32;1.10;;;0.57;;
44110;SDS011;29774;52.664;5.074;2022-09-21T15:06:15;1.25;;;0.55;;
44110;SDS011;29774;52.664;5.074;2022-09-21T15:12:13;4.45;;;0.60;;
44110;SDS011;29774;52.664;5.074;2022-09-21T15:14:53;4.32;;;1.00;;
44110;SDS011;29774;52.664;5.074;2022-09-21T15:17:31;3.72;;;0.70;;
44110;SDS011;29774;52.664;5.074;2022-09-21T15:19:57;3.00;;;1.85;;
44110;SDS011;29774;52.664;5.074;2022-09-21T15:22:25;3.15;;;1.40;;
44110;SDS011;29774;52.664;5.074;2022-09-21T15:25:00;3.63;;;0.95;;
44110;SDS011;29774;52.664;5.074;2022-09-21T15:27:28;1.52;;;0.50;;
44110;SDS011;29774;52.664;5.074;2022-09-21T15:29:57;4.22;;;0.80;;
44110;SDS011;29774;52.664;5.074;2022-09-21T15:32:37;1.20;;;0.60;;
44110;SDS011;29774;52.664;5.074;2022-09-21T15:35:21;0.75;;;0.50;;
44110;SDS011;29774;52.664;5.074;2022-09-21T15:37:47;1.33;;;0.50;;
44110;SDS011;29774;52.664;5.074;2022-09-21T15:42:59;3.80;;;0.60;;
44110;SDS011;29774;52.664;5.074;2022-09-21T15:45:31;2.03;;;0.70;;
44110;SDS011;29774;52.664;5.074;2022-09-21T15:48:15;2.55;;;0.80;;
44110;SDS011;29774;52.664;5.074;2022-09-21T15:50:42;2.05;;;0.50;;
44110;SDS011;29774;52.664;5.074;2022-09-21T15:53:17;2.85;;;0.85;;
44110;SDS011;29774;52.664;5.074;2022-09-21T15:55:50;1.85;;;0.60;;
44110;SDS011;29774;52.664;5.074;2022-09-21T15:58:33;2.30;;;0.82;;
44110;SDS011;29774;52.664;5.074;2022-09-21T16:01:11;3.13;;;0.82;;
44110;SDS011;29774;52.664;5.074;2022-09-21T16:03:44;2.33;;;0.50;;
44110;SDS011;29774;52.664;5.074;2022-09-21T16:06:17;4.65;;;0.80;;
44110;SDS011;29774;52.664;5.074;2022-09-21T16:08:52;2.65;;;0.65;;
44110;SDS011;29774;52.664;5.074;2022-09-21T16:11:36;3.70;;;0.70;;
44110;SDS011;29774;52.664;5.074;2022-09-21T16:14:08;2.20;;;0.70;;
44110;SDS011;29774;52.664;5.074;2022-09-21T16:19:39;1.13;;;0.57;;
44110;SDS011;29774;52.664;5.074;2022-09-21T16:22:11;4.72;;;0.88;;
44110;SDS011;29774;52.664;5.074;2022-09-21T16:24:49;3.38;;;0.70;;
44110;SDS011;29774;52.664;5.074;2022-09-21T16:27:17;5.43;;;3.33;;
44110;SDS011;29774;52.664;5.074;2022-09-21T16:29:45;3.00;;;1.33;;
44110;SDS011;29774;52.664;5.074;2022-09-21T16:34:42;2.95;;;1.08;;
44110;SDS011;29774;52.664;5.074;2022-09-21T16:39:50;2.58;;;0.90;;
44110;SDS011;29774;52.664;5.074;2022-09-21T16:42:17;1.70;;;0.60;;
44110;SDS011;29774;52.664;5.074;2022-09-21T16:44:44;2.30;;;0.77;;
44110;SDS011;29774;52.664;5.074;2022-09-21T16:47:14;2.70;;;0.63;;
44110;SDS011;29774;52.664;5.074;2022-09-21T16:49:51;3.75;;;0.82;;
44110;SDS011;29774;52.664;5.074;2022-09-21T16:52:24;1.67;;;0.70;;
44110;SDS011;29774;52.664;5.074;2022-09-21T16:54:54;1.67;;;0.60;;
44110;SDS011;29774;52.664;5.074;2022-09-21T16:57:23;1.40;;;0.60;;
44110;SDS011;29774;52.664;5.074;2022-09-21T16:59:50;3.47;;;0.90;;
44110;SDS011;29774;52.664;5.074;2022-09-21T17:02:16;1.90;;;0.77;;
44110;SDS011;29774;52.664;5.074;2022-09-21T17:04:42;2.92;;;0.82;;
44110;SDS011;29774;52.664;5.074;2022-09-21T17:07:11;6.22;;;3.40;;
44110;SDS011;29774;52.664;5.074;2022-09-21T17:09:39;7.47;;;5.93;;
44110;SDS011;29774;52.664;5.074;2022-09-21T17:12:08;4.57;;;1.70;;
44110;SDS011;29774;52.664;5.074;2022-09-21T17:14:36;1.92;;;1.52;;
44110;SDS011;29774;52.664;5.074;2022-09-21T17:17:04;3.35;;;1.05;;
44110;SDS011;29774;52.664;5.074;2022-09-21T17:19:35;1.73;;;1.00;;
44110;SDS011;29774;52.664;5.074;2022-09-21T17:22:01;3.38;;;0.90;;
44110;SDS011;29774;52.664;5.074;2022-09-21T17:24:28;2.30;;;0.70;;
44110;SDS011;29774;52.664;5.074;2022-09-21T17:26:55;5.15;;;0.82;;
44110;SDS011;29774;52.664;5.074;2022-09-21T17:31:54;0.95;;;0.80;;
44110;SDS011;29774;52.664;5.074;2022-09-21T17:34:22;2.85;;;1.08;;
44110;SDS011;29774;52.664;5.074;2022-09-21T17:36:52;3.55;;;1.02;;
44110;SDS011;29774;52.664;5.074;2022-09-21T17:39:19;1.80;;;0.88;;
44110;SDS011;29774;52.664;5.074;2022-09-21T17:42:00;4.57;;;1.10;;
44110;SDS011;29774;52.664;5.074;2022-09-21T17:44:39;3.33;;;1.17;;
44110;SDS011;29774;52.664;5.074;2022-09-21T17:47:17;2.13;;;1.20;;
44110;SDS011;29774;52.664;5.074;2022-09-21T17:49:45;5.30;;;1.83;;
44110;SDS011;29774;52.664;5.074;2022-09-21T17:52:15;1.77;;;1.25;;
44110;SDS011;29774;52.664;5.074;2022-09-21T17:55:01;2.58;;;1.25;;
44110;SDS011;29774;52.664;5.074;2022-09-21T17:57:36;4.07;;;1.83;;
44110;SDS011;29774;52.664;5.074;2022-09-21T18:00:27;3.63;;;1.60;;
44110;SDS011;29774;52.664;5.074;2022-09-21T18:02:57;3.75;;;1.40;;
44110;SDS011;29774;52.664;5.074;2022-09-21T18:05:24;9.15;;;6.03;;
44110;SDS011;29774;52.664;5.074;2022-09-21T18:07:54;13.45;;;4.47;;
44110;SDS011;29774;52.664;5.074;2022-09-21T18:10:20;3.88;;;2.50;;
44110;SDS011;29774;52.664;5.074;2022-09-21T18:13:14;5.38;;;2.05;;
44110;SDS011;29774;52.664;5.074;2022-09-21T18:15:49;3.40;;;1.38;;
44110;SDS011;29774;52.664;5.074;2022-09-21T18:21:17;2.55;;;1.50;;
44110;SDS011;29774;52.664;5.074;2022-09-21T18:26:32;2.90;;;1.90;;
44110;SDS011;29774;52.664;5.074;2022-09-21T18:28:59;4.20;;;1.52;;
44110;SDS011;29774;52.664;5.074;2022-09-21T18:43:06;2.72;;;1.52;;
44110;SDS011;29774;52.664;5.074;2022-09-21T18:45:39;5.15;;;1.67;;
44110;SDS011;29774;52.664;5.074;2022-09-21T18:48:17;3.28;;;2.05;;
44110;SDS011;29774;52.664;5.074;2022-09-21T18:51:07;5.43;;;2.03;;
44110;SDS011;29774;52.664;5.074;2022-09-21T18:53:54;3.28;;;1.65;;
44110;SDS011;29774;52.664;5.074;2022-09-21T18:56:21;3.95;;;1.55;;
44110;SDS011;29774;52.664;5.074;2022-09-21T18:58:47;4.07;;;2.13;;
44110;SDS011;29774;52.664;5.074;2022-09-21T19:01:14;4.85;;;2.13;;
44110;SDS011;29774;52.664;5.074;2022-09-21T19:03:45;6.38;;;2.60;;
44110;SDS011;29774;52.664;5.074;2022-09-21T19:06:16;5.30;;;2.55;;
44110;SDS011;29774;52.664;5.074;2022-09-21T19:08:58;3.53;;;2.00;;